Time;durP1;ratioP1;P1;durP2;ratioP2;P2;SDS_P1;SDS_P2;PMS_P1;PMS_P2;Temp;Humidity;BMP_temperature;BMP_pressure;BME280_temperature;BME280_humidity;BME280_pressure;Samples;Min_cycle;Max_cycle;Signal;HPM_P1;HPM_P2
2024/02/20 00:00:11;;;;;;;35.90;6.30;;;;;;;6.19;100.00;102468.38;5044283;28;20275;-73
2024/02/20 00:02:39;;;;;;;41.47;8.90;;;;;;;4.33;100.00;102147.78;5050535;28;20178;-73
2024/02/20 00:05:06;;;;;;;40.47;7.20;;;;;;;4.99;100.00;102281.41;5046892;28;20438;-73
2024/02/20 00:07:32;;;;;;;32.57;6.60;;;;;;;5.96;100.00;102447.22;5047451;28;20860;-73
2024/02/20 00:10:00;;;;;;;51.20;8.40;;;;;;;6.69;100.00;102588.56;5049508;28;20488;-73
2024/02/20 00:12:25;;;;;;;37.93;8.00;;;;;;;4.33;100.00;102220.34;5048840;28;20203;-73
2024/02/20 00:14:51;;;;;;;39.87;7.50;;;;;;;4.85;100.00;102279.88;5061815;28;20516;-73
2024/02/20 00:17:17;;;;;;;38.23;6.73;;;;;;;4.86;100.00;102312.63;5049388;28;20203;-73
2024/02/20 00:19:44;;;;;;;47.33;7.40;;;;;;;3.63;100.00;102141.91;5046395;28;20437;-73
2024/02/20 00:22:10;;;;;;;45.23;8.53;;;;;;;3.57;100.00;102124.66;5046179;28;20180;-74
2024/02/20 00:24:36;;;;;;;31.63;6.13;;;;;;;4.42;100.00;102261.28;5046429;28;20430;-73
2024/02/20 00:27:03;;;;;;;38.13;7.80;;;;;;;5.34;100.00;102437.25;5044645;28;20672;-73
2024/02/20 00:29:29;;;;;;;46.67;8.80;;;;;;;4.06;100.00;102264.09;5052127;28;21916;-73
2024/02/20 00:31:54;;;;;;;36.63;7.33;;;;;;;5.21;100.00;102394.88;5052062;28;20473;-73
2024/02/20 00:34:20;;;;;;;39.17;9.17;;;;;;;5.06;100.00;102383.63;5050501;28;20686;-73
2024/02/20 00:36:45;;;;;;;37.97;7.67;;;;;;;5.99;100.00;102556.19;5046452;28;20208;-73
2024/02/20 00:39:13;;;;;;;45.37;8.83;;;;;;;4.07;100.00;102279.03;5055649;28;20200;-73
2024/02/20 00:41:38;;;;;;;40.00;8.43;;;;;;;4.10;100.00;102259.38;5049308;28;20259;-73
2024/02/20 00:44:04;;;;;;;35.90;7.60;;;;;;;4.83;100.00;102389.97;5045284;28;20526;-73
2024/02/20 00:49:32;;;;;;;51.17;9.27;;;;;;;4.81;100.00;102391.94;5089229;27;20523;-74
2024/02/20 00:52:02;;;;;;;33.03;7.13;;;;;;;5.79;100.00;102570.25;5058357;28;20451;-74
2024/02/20 00:54:30;;;;;;;37.57;7.33;;;;;;;4.09;100.00;102257.69;5057912;28;20436;-74
2024/02/20 00:57:09;;;;;;;;;;;;;;;;;;;;;
2024/02/20 00:59:42;;;;;;;48.60;7.40;;;;;;;5.02;100.00;102438.06;5077396;28;20455;-74
2024/02/20 01:02:18;;;;;;;42.30;7.43;;;;;;;5.83;100.00;102561.88;5057633;28;20470;-74
2024/02/20 01:04:56;;;;;;;;;;;;;;;;;;;;;
2024/02/20 01:07:30;;;;;;;31.27;5.97;;;;;;;6.44;100.00;102691.06;5076477;28;20421;-74
2024/02/20 01:09:59;;;;;;;32.03;7.13;;;;;;;5.02;100.00;102432.75;5077573;28;20457;-74
2024/02/20 01:12:33;;;;;;;31.10;6.27;;;;;;;4.51;100.00;102393.38;5056625;28;20521;-74
2024/02/20 01:15:06;;;;;;;39.47;6.57;;;;;;;5.65;100.00;102576.69;5075359;28;20971;-74
2024/02/20 01:17:36;;;;;;;44.53;7.63;;;;;;;4.42;100.00;102339.16;5057779;28;20459;-74
2024/02/20 01:20:07;;;;;;;44.67;7.17;;;;;;;5.12;100.00;102492.22;5059613;28;20499;-74
2024/02/20 01:22:41;;;;;;;38.33;7.20;;;;;;;5.64;100.00;102582.97;5076045;28;20543;-72
2024/02/20 01:25:06;;;;;;;47.73;8.13;;;;;;;6.37;100.00;102695.22;5059002;28;20466;-71
2024/02/20 01:27:31;;;;;;;51.60;8.80;;;;;;;5.55;100.00;102576.56;5060820;28;20999;-72
2024/02/20 01:29:58;;;;;;;33.37;6.63;;;;;;;5.82;100.00;102625.94;5076338;28;20206;-72
2024/02/20 01:32:23;;;;;;;34.93;6.30;;;;;;;5.99;100.00;102645.88;5057343;28;20183;-72
2024/02/20 01:34:49;;;;;;;40.97;6.37;;;;;;;6.38;100.00;102728.88;5073760;28;20487;-72
2024/02/20 01:37:15;;;;;;;39.70;7.30;;;;;;;5.68;100.00;102623.53;5058638;28;20198;-72
2024/02/20 01:39:40;;;;;;;36.83;7.70;;;;;;;5.85;100.00;102657.63;5075369;28;20286;-72
2024/02/20 01:42:05;;;;;;;42.53;7.50;;;;;;;6.33;100.00;102754.09;5071639;28;20586;-72
2024/02/20 01:44:33;;;;;;;38.83;7.00;;;;;;;6.32;100.00;102762.22;5076635;28;20178;-71
2024/02/20 01:47:00;;;;;;;36.43;7.60;;;;;;;6.28;100.00;102763.44;5075271;28;20206;-74
2024/02/20 01:49:27;;;;;;;39.20;7.13;;;;;;;5.92;100.00;102704.09;5077419;28;20508;-72
2024/02/20 01:51:54;;;;;;;36.27;6.90;;;;;;;5.68;100.00;102685.59;5055220;28;21000;-72
2024/02/20 01:54:21;;;;;;;35.87;7.70;;;;;;;5.63;100.00;102683.28;5071848;28;20440;-71
2024/02/20 01:56:48;;;;;;;36.43;7.40;;;;;;;5.75;100.00;102685.94;5058007;28;20811;-72
2024/02/20 01:59:15;;;;;;;40.37;7.60;;;;;;;5.85;100.00;102721.53;5069427;28;20465;-72
2024/02/20 02:01:40;;;;;;;42.57;7.17;;;;;;;5.83;100.00;102720.81;5057253;28;20916;-72
2024/02/20 02:04:06;;;;;;;38.40;6.20;;;;;;;5.86;100.00;102724.06;5045202;28;20417;-71
2024/02/20 02:06:36;;;;;;;33.73;6.50;;;;;;;5.98;100.00;102724.09;5060158;28;20206;-72
2024/02/20 02:09:01;;;;;;;34.67;7.07;;;;;;;5.77;100.00;102703.50;5036681;28;20164;-72
2024/02/20 02:11:27;;;;;;;33.90;6.60;;;;;;;6.00;100.00;102751.47;5062709;28;20451;-72
2024/02/20 02:13:53;;;;;;;41.73;6.20;;;;;;;5.94;100.00;102734.16;5059442;28;20183;-72
2024/02/20 02:16:18;;;;;;;40.80;7.20;;;;;;;6.13;100.00;102773.47;5058905;28;20187;-72
2024/02/20 02:18:44;;;;;;;44.00;7.87;;;;;;;6.18;100.00;102773.13;5042948;28;20207;-72
2024/02/20 02:21:09;;;;;;;42.80;7.87;;;;;;;6.41;100.00;102788.13;5041045;28;20210;-72
2024/02/20 02:23:34;;;;;;;39.90;6.70;;;;;;;5.86;100.00;102726.72;5038480;28;20251;-72
2024/02/20 02:26:00;;;;;;;35.00;8.20;;;;;;;5.94;100.00;102718.19;5042310;28;20191;-72
2024/02/20 02:28:26;;;;;;;42.33;6.07;;;;;;;6.21;100.00;102771.06;5059450;28;20565;-72
2024/02/20 02:30:51;;;;;;;38.33;7.27;;;;;;;6.26;100.00;102768.03;5048451;28;20468;-72
2024/02/20 02:33:17;;;;;;;42.23;8.60;;;;;;;6.22;100.00;102772.78;5041500;28;20195;-72
2024/02/20 02:35:43;;;;;;;44.63;6.20;;;;;;;5.76;100.00;102700.97;5043598;28;20686;-72
2024/02/20 02:38:08;;;;;;;33.63;5.60;;;;;;;5.46;100.00;102653.66;5049196;28;20253;-72
2024/02/20 02:40:34;;;;;;;40.83;6.70;;;;;;;5.89;100.00;102710.50;5058831;28;20449;-72
2024/02/20 02:42:59;;;;;;;33.67;5.63;;;;;;;6.09;100.00;102740.91;5043359;28;20179;-72
2024/02/20 02:45:31;;;;;;;32.37;6.07;;;;;;;5.73;100.00;102688.75;5037861;28;20191;-73
2024/02/20 02:47:56;;;;;;;39.00;6.97;;;;;;;6.26;100.00;102757.38;5042522;28;20193;-72
2024/02/20 02:50:22;;;;;;;39.03;6.50;;;;;;;5.61;100.00;102653.31;5059396;28;20458;-72
2024/02/20 02:52:47;;;;;;;33.37;6.70;;;;;;;5.67;100.00;102683.91;5040707;28;20191;-72
2024/02/20 02:55:13;;;;;;;58.87;7.80;;;;;;;6.28;100.00;102790.09;5040585;28;20179;-71
2024/02/20 02:57:39;;;;;;;33.93;6.17;;;;;;;6.29;100.00;102787.28;5042216;28;20204;-72
2024/02/20 03:00:09;;;;;;;34.50;6.80;;;;;;;5.68;100.00;102674.94;5035075;28;20290;-72
2024/02/20 03:02:34;;;;;;;32.97;5.97;;;;;;;6.37;100.00;102788.50;5048745;28;20516;-72
2024/02/20 03:05:00;;;;;;;28.30;5.63;;;;;;;5.59;100.00;102689.84;5038793;28;20809;-72
2024/02/20 03:07:25;;;;;;;39.37;7.07;;;;;;;5.95;100.00;102737.66;5039579;28;20557;-72
2024/02/20 03:09:51;;;;;;;39.00;6.70;;;;;;;5.76;100.00;102714.28;5061811;28;20216;-72
2024/02/20 03:12:17;;;;;;;40.27;6.40;;;;;;;6.16;100.00;102796.38;5055149;28;20285;-72
2024/02/20 03:14:43;;;;;;;32.90;6.90;;;;;;;5.89;100.00;102749.63;5041321;28;20215;-72
2024/02/20 03:17:08;;;;;;;32.37;6.67;;;;;;;6.18;100.00;102794.44;5040684;28;20450;-72
2024/02/20 03:19:33;;;;;;;37.20;6.07;;;;;;;5.74;100.00;102710.91;5059526;28;20217;-72
2024/02/20 03:21:59;;;;;;;41.07;6.70;;;;;;;5.23;100.00;102629.69;5053526;28;20607;-72
2024/02/20 03:24:25;;;;;;;32.23;5.93;;;;;;;6.14;100.00;102791.19;5059714;28;20188;-72
2024/02/20 03:26:51;;;;;;;28.90;5.27;;;;;;;6.03;100.00;102772.53;5057122;28;20183;-72
2024/02/20 03:29:16;;;;;;;40.13;6.53;;;;;;;5.24;100.00;102654.50;5039647;28;20445;-72
2024/02/20 03:31:42;;;;;;;33.30;6.13;;;;;;;5.14;100.00;102649.88;5060674;28;20213;-72
2024/02/20 03:34:08;;;;;;;40.83;6.90;;;;;;;5.43;100.00;102655.56;5035524;28;20190;-72
2024/02/20 03:36:33;;;;;;;28.73;5.50;;;;;;;5.65;100.00;102715.13;5057369;28;20478;-72
2024/02/20 03:38:59;;;;;;;32.07;5.77;;;;;;;5.37;100.00;102663.19;5056294;28;20198;-72
2024/02/20 03:41:26;;;;;;;28.67;6.77;;;;;;;6.11;100.00;102794.09;5061240;28;20204;-72
2024/02/20 03:43:52;;;;;;;44.63;8.20;;;;;;;6.09;100.00;102793.38;5054877;28;20190;-72
2024/02/20 03:46:17;;;;;;;34.17;6.17;;;;;;;6.20;100.00;102797.84;5058103;28;20965;-73
2024/02/20 03:48:43;;;;;;;34.00;6.53;;;;;;;6.21;100.00;102804.84;5057924;28;20191;-73
2024/02/20 03:51:09;;;;;;;29.17;5.70;;;;;;;5.69;100.00;102713.06;5056993;28;20197;-72
2024/02/20 03:53:34;;;;;;;35.23;6.13;;;;;;;5.64;100.00;102703.63;5038945;28;20179;-72
2024/02/20 03:56:00;;;;;;;28.90;5.80;;;;;;;6.21;100.00;102803.03;5044150;28;20479;-72
2024/02/20 03:58:25;;;;;;;34.40;6.30;;;;;;;5.97;100.00;102789.84;5042089;28;20206;-72
2024/02/20 04:00:50;;;;;;;35.43;7.60;;;;;;;5.44;100.00;102712.34;5040746;28;20202;-73
2024/02/20 04:03:16;;;;;;;30.43;5.87;;;;;;;6.10;100.00;102795.03;5043354;28;20270;-73
2024/02/20 04:05:41;;;;;;;34.77;6.10;;;;;;;6.14;100.00;102814.31;5060619;28;20188;-72
2024/02/20 04:08:07;;;;;;;33.53;6.00;;;;;;;5.78;100.00;102755.78;5058255;28;20170;-72
2024/02/20 04:10:33;;;;;;;32.23;5.80;;;;;;;5.29;100.00;102687.75;5041140;28;20203;-72
2024/02/20 04:12:58;;;;;;;38.93;6.13;;;;;;;5.76;100.00;102756.91;5059208;28;20187;-72
2024/02/20 04:15:23;;;;;;;33.50;5.63;;;;;;;6.05;100.00;102816.75;5060603;28;20198;-72
2024/02/20 04:17:49;;;;;;;30.87;6.63;;;;;;;5.41;100.00;102677.97;5058530;28;20249;-73
2024/02/20 04:20:14;;;;;;;24.33;4.43;;;;;;;5.83;100.00;102758.09;5052898;28;20211;-72
2024/02/20 04:22:40;;;;;;;25.23;6.07;;;;;;;5.94;100.00;102790.09;5060299;28;20267;-72
2024/02/20 04:25:06;;;;;;;28.40;6.20;;;;;;;5.39;100.00;102680.75;5040495;28;20193;-72
2024/02/20 04:27:33;;;;;;;33.87;5.93;;;;;;;6.14;100.00;102827.66;5043744;28;20183;-72
2024/02/20 04:29:58;;;;;;;29.67;5.80;;;;;;;6.05;100.00;102851.38;5052339;22;21055;-70
2024/02/20 04:32:24;;;;;;;28.90;4.70;;;;;;;5.72;100.00;102766.06;5033364;28;20431;-71
2024/02/20 04:34:50;;;;;;;27.67;4.90;;;;;;;6.09;100.00;102830.66;5018549;28;20310;-70
2024/02/20 04:37:16;;;;;;;33.77;7.10;;;;;;;5.39;100.00;102706.53;5031971;28;20188;-71
2024/02/20 04:39:44;;;;;;;39.73;6.83;;;;;;;5.70;100.00;102763.56;5016092;28;20460;-70
2024/02/20 04:42:10;;;;;;;41.20;6.90;;;;;;;5.85;100.00;102798.78;5035034;28;20525;-70
2024/02/20 04:44:37;;;;;;;33.07;5.87;;;;;;;5.81;100.00;102776.84;5014924;28;21021;-70
2024/02/20 04:47:06;;;;;;;36.33;5.43;;;;;;;5.97;100.00;102820.97;5015412;28;20176;-71
2024/02/20 04:49:32;;;;;;;25.50;6.00;;;;;;;6.10;100.00;102833.22;5033439;28;20463;-70
2024/02/20 04:51:58;;;;;;;31.67;5.67;;;;;;;5.97;100.00;102797.00;5013992;28;20521;-70
2024/02/20 04:54:24;;;;;;;32.97;6.00;;;;;;;5.77;100.00;102770.06;5033715;28;21186;-72
2024/02/20 04:56:49;;;;;;;33.80;5.97;;;;;;;5.59;100.00;102761.72;5032288;28;20241;-72
2024/02/20 04:59:15;;;;;;;34.67;5.93;;;;;;;5.50;100.00;102727.81;5013151;28;20200;-72
2024/02/20 05:01:40;;;;;;;35.23;5.83;;;;;;;6.00;100.00;102826.91;5010379;28;20737;-72
2024/02/20 05:04:05;;;;;;;33.80;6.40;;;;;;;5.49;100.00;102733.25;5018402;28;20199;-72
2024/02/20 05:06:31;;;;;;;28.37;5.50;;;;;;;6.08;100.00;102834.31;5016518;28;20842;-70
2024/02/20 05:08:56;;;;;;;30.83;6.60;;;;;;;6.11;100.00;102829.56;5015713;28;20246;-71
2024/02/20 05:11:24;;;;;;;29.23;5.93;;;;;;;6.13;100.00;102834.75;5035894;28;20742;-70
2024/02/20 05:13:50;;;;;;;28.87;5.80;;;;;;;6.08;100.00;102826.31;5037927;28;20318;-70
2024/02/20 05:16:15;;;;;;;26.20;5.00;;;;;;;6.08;100.00;102831.63;5012946;28;20533;-70
2024/02/20 05:18:41;;;;;;;30.37;5.73;;;;;;;6.11;100.00;102834.91;5014474;28;20457;-70
2024/02/20 05:21:07;;;;;;;31.43;5.60;;;;;;;5.42;100.00;102722.25;5014964;28;20215;-70
2024/02/20 05:23:32;;;;;;;24.67;4.90;;;;;;;6.01;100.00;102830.41;5015606;28;20180;-70
2024/02/20 05:25:58;;;;;;;30.83;4.97;;;;;;;5.75;100.00;102795.13;5033010;28;20789;-71
2024/02/20 05:28:23;;;;;;;35.20;5.43;;;;;;;6.04;100.00;102828.34;5036146;28;20403;-70
2024/02/20 05:30:49;;;;;;;30.37;5.13;;;;;;;5.98;100.00;102826.16;5034557;28;20230;-71
2024/02/20 05:33:15;;;;;;;27.93;4.60;;;;;;;6.11;100.00;102834.91;5032665;28;20267;-70
2024/02/20 05:35:42;;;;;;;30.70;6.30;;;;;;;5.35;100.00;102705.91;5037226;28;20569;-70
2024/02/20 05:38:08;;;;;;;29.00;5.90;;;;;;;5.71;100.00;102775.88;5021733;28;20458;-70
2024/02/20 05:40:33;;;;;;;30.80;5.80;;;;;;;6.00;100.00;102831.38;5034158;28;20468;-70
2024/02/20 05:42:59;;;;;;;27.17;6.60;;;;;;;5.78;100.00;102793.06;5017717;28;20176;-70
2024/02/20 05:45:24;;;;;;;32.13;7.13;;;;;;;5.61;100.00;102774.88;5034620;28;20571;-70
2024/02/20 05:47:50;;;;;;;23.77;4.80;;;;;;;6.15;100.00;102821.34;5020032;28;21011;-70
2024/02/20 05:50:15;;;;;;;24.43;5.00;;;;;;;6.22;100.00;102833.19;5014496;28;20216;-70
2024/02/20 05:52:40;;;;;;;29.27;5.80;;;;;;;5.76;100.00;102762.22;5018711;28;20184;-71
2024/02/20 05:55:07;;;;;;;25.00;4.73;;;;;;;6.28;100.00;102830.06;5040683;28;20254;-70
2024/02/20 05:57:33;;;;;;;34.30;5.70;;;;;;;5.55;100.00;102711.47;5038886;28;20702;-70
2024/02/20 05:59:59;;;;;;;27.13;5.47;;;;;;;6.36;100.00;102824.94;5036747;28;20449;-71
2024/02/20 06:02:24;;;;;;;27.63;5.37;;;;;;;6.11;100.00;102800.28;5039489;28;20518;-70
2024/02/20 06:04:50;;;;;;;32.40;5.93;;;;;;;5.74;100.00;102751.69;5014775;28;20526;-70
2024/02/20 06:07:17;;;;;;;34.83;5.87;;;;;;;6.33;100.00;102827.88;5018903;28;20512;-70
2024/02/20 06:09:43;;;;;;;32.13;6.20;;;;;;;6.17;100.00;102803.41;5035399;28;20295;-70
2024/02/20 06:12:10;;;;;;;32.97;6.37;;;;;;;6.32;100.00;102836.84;5020161;28;20517;-70
2024/02/20 06:14:36;;;;;;;31.80;6.10;;;;;;;6.27;100.00;102820.34;5018460;28;20433;-70
2024/02/20 06:17:01;;;;;;;30.73;5.60;;;;;;;6.06;100.00;102789.13;5018964;28;20431;-70
2024/02/20 06:19:27;;;;;;;24.67;4.80;;;;;;;6.32;100.00;102824.34;5034008;28;20499;-70
2024/02/20 06:21:52;;;;;;;26.97;4.43;;;;;;;5.60;100.00;102688.00;5026298;28;20242;-71
2024/02/20 06:24:18;;;;;;;32.60;6.27;;;;;;;5.78;100.00;102717.66;5036684;28;20184;-71
2024/02/20 06:26:43;;;;;;;34.67;6.20;;;;;;;6.32;100.00;102812.84;5013274;28;20246;-71
2024/02/20 06:29:11;;;;;;;29.20;5.53;;;;;;;6.34;100.00;102810.91;5017166;28;20304;-70
2024/02/20 06:31:36;;;;;;;44.70;6.17;;;;;;;6.40;100.00;102807.75;5034802;28;20199;-70
2024/02/20 06:34:04;;;;;;;27.07;5.63;;;;;;;6.05;100.00;102741.31;5033948;28;20828;-70
2024/02/20 06:36:29;;;;;;;25.37;4.43;;;;;;;6.17;100.00;102776.78;5037383;28;20183;-70
2024/02/20 06:38:55;;;;;;;25.43;4.70;;;;;;;6.13;100.00;102748.66;5032867;28;20469;-71
2024/02/20 06:41:20;;;;;;;29.50;6.00;;;;;;;6.15;100.00;102736.91;5034789;28;20270;-70
2024/02/20 06:43:45;;;;;;;24.43;4.30;;;;;;;6.11;100.00;102751.47;5015392;28;20797;-70
2024/02/20 06:46:11;;;;;;;29.53;5.03;;;;;;;5.81;100.00;102688.97;5032940;28;20530;-70
2024/02/20 06:48:36;;;;;;;28.80;5.77;;;;;;;6.40;100.00;102775.78;5011634;28;20274;-70
2024/02/20 06:51:03;;;;;;;26.73;5.57;;;;;;;6.15;100.00;102749.41;5037530;28;20204;-70
2024/02/20 06:53:28;;;;;;;32.20;6.47;;;;;;;6.39;100.00;102770.56;5034159;28;20192;-70
2024/02/20 06:55:53;;;;;;;22.20;4.73;;;;;;;6.60;100.00;102787.50;5035180;28;20455;-73
2024/02/20 06:58:19;;;;;;;28.03;4.57;;;;;;;6.59;100.00;102779.59;5033182;28;20234;-72
2024/02/20 07:00:44;;;;;;;27.10;4.53;;;;;;;6.73;100.00;102777.50;5035365;28;20268;-70
2024/02/20 07:03:10;;;;;;;22.23;4.90;;;;;;;6.26;100.00;102707.59;5036760;28;20194;-70
2024/02/20 07:05:36;;;;;;;25.57;5.57;;;;;;;6.68;100.00;102757.50;5035111;28;20184;-69
2024/02/20 07:08:01;;;;;;;32.40;5.43;;;;;;;6.34;100.00;102688.31;5027569;28;20295;-70
2024/02/20 07:10:29;;;;;;;26.17;5.83;;;;;;;6.69;100.00;102769.88;5036731;28;20876;-71
2024/02/20 07:12:58;;;;;;;27.60;5.30;;;;;;;6.19;100.00;102684.22;5016323;28;20643;-70
2024/02/20 07:15:23;;;;;;;23.77;5.03;;;;;;;6.42;100.00;102707.19;5015902;28;20454;-70
2024/02/20 07:17:49;;;;;;;23.43;5.20;;;;;;;6.66;100.00;102764.81;5032048;28;20986;-71
2024/02/20 07:20:14;;;;;;;22.67;4.80;;;;;;;6.69;100.00;102762.72;5016681;28;20235;-70
2024/02/20 07:22:40;;;;;;;29.00;5.20;;;;;;;6.83;100.00;102771.41;5030551;28;20706;-70
2024/02/20 07:25:05;;;;;;;28.80;5.43;;;;;;;6.87;100.00;102778.19;5044974;28;20610;-70
2024/02/20 07:27:31;;;;;;;28.30;5.40;;;;;;;6.26;100.00;102725.41;5035752;28;20195;-70
2024/02/20 07:29:56;;;;;;;27.90;6.53;;;;;;;6.82;100.00;102770.56;5015599;28;20458;-70
2024/02/20 07:32:22;;;;;;;30.53;5.57;;;;;;;6.94;100.00;102766.03;5029352;28;20682;-70
2024/02/20 07:34:50;;;;;;;34.60;5.00;;;;;;;6.99;100.00;102777.16;5011098;28;20185;-71
2024/02/20 07:37:15;;;;;;;32.27;6.07;;;;;;;6.48;100.00;102696.03;5013352;28;20686;-71
2024/02/20 07:39:40;;;;;;;29.77;5.17;;;;;;;6.55;100.00;102718.53;5027704;28;20454;-70
2024/02/20 07:42:09;;;;;;;24.90;4.80;;;;;;;7.07;100.00;102765.84;5030403;28;20234;-69
2024/02/20 07:44:35;;;;;;;22.20;4.87;;;;;;;6.75;100.00;102732.03;5031312;28;20176;-70
2024/02/20 07:47:00;;;;;;;22.30;5.30;;;;;;;6.65;100.00;102723.09;5014839;28;20429;-70
2024/02/20 07:49:26;;;;;;;33.67;7.90;;;;;;;6.82;100.00;102740.38;5014830;28;20208;-70
2024/02/20 07:51:51;;;;;;;35.07;6.50;;;;;;;6.87;100.00;102727.50;5016860;28;20180;-70
2024/02/20 07:54:17;;;;;;;24.70;5.50;;;;;;;7.04;100.00;102763.44;5035610;28;20658;-70
2024/02/20 07:56:42;;;;;;;27.73;6.00;;;;;;;6.82;100.00;102713.69;5032290;28;20183;-71
2024/02/20 07:59:08;;;;;;;28.80;6.00;;;;;;;7.05;100.00;102765.97;5011233;28;20586;-70
2024/02/20 08:01:34;;;;;;;24.80;5.17;;;;;;;6.84;100.00;102709.09;5034487;28;20199;-70
2024/02/20 08:04:02;;;;;;;28.90;5.40;;;;;;;6.67;100.00;102684.66;5012459;28;20439;-70
2024/02/20 08:06:27;;;;;;;20.73;5.27;;;;;;;6.98;100.00;102756.81;5018325;28;20655;-71
2024/02/20 08:08:53;;;;;;;27.80;5.60;;;;;;;6.52;100.00;102683.28;5030651;28;20438;-70
2024/02/20 08:11:18;;;;;;;27.37;5.30;;;;;;;7.06;100.00;102765.03;5035062;28;20223;-71
2024/02/20 08:13:45;;;;;;;35.93;6.50;;;;;;;6.97;100.00;102758.63;5033902;28;20188;-72
2024/02/20 08:16:11;;;;;;;25.73;5.90;;;;;;;6.34;100.00;102651.84;5032568;28;20621;-71
2024/02/20 08:18:39;;;;;;;29.10;5.87;;;;;;;7.16;100.00;102757.06;5017662;28;20466;-71
2024/02/20 08:21:04;;;;;;;34.53;6.93;;;;;;;6.32;100.00;102663.59;5011097;28;20524;-71
2024/02/20 08:23:30;;;;;;;26.53;5.33;;;;;;;7.02;100.00;102758.22;5030335;28;20456;-71
2024/02/20 08:25:55;;;;;;;31.57;5.53;;;;;;;7.04;100.00;102758.94;5033770;28;20183;-71
2024/02/20 08:28:21;;;;;;;29.87;4.70;;;;;;;6.37;100.00;102658.75;5014408;28;20191;-71
2024/02/20 08:30:46;;;;;;;28.73;5.80;;;;;;;6.29;100.00;102647.88;5012862;28;20220;-71
2024/02/20 08:33:11;;;;;;;35.77;6.03;;;;;;;6.79;100.00;102710.31;5026206;28;20262;-72
2024/02/20 08:35:37;;;;;;;24.93;5.10;;;;;;;6.83;100.00;102718.91;5032941;28;20206;-72
2024/02/20 08:38:03;;;;;;;27.93;5.00;;;;;;;6.95;100.00;102720.56;5033832;28;20207;-71
2024/02/20 08:40:28;;;;;;;25.63;5.87;;;;;;;6.60;100.00;102666.66;5015163;28;20203;-72
2024/02/20 08:42:54;;;;;;;28.77;6.40;;;;;;;6.93;100.00;102716.31;5032178;28;20212;-71
2024/02/20 08:45:19;;;;;;;30.03;6.90;;;;;;;6.86;100.00;102699.16;5034760;28;20192;-72
2024/02/20 08:47:45;;;;;;;26.40;5.53;;;;;;;7.20;100.00;102761.16;5033971;28;20290;-71
2024/02/20 08:50:11;;;;;;;25.17;6.10;;;;;;;7.17;100.00;102751.59;5019321;28;20216;-71
2024/02/20 08:52:36;;;;;;;29.80;6.37;;;;;;;7.06;100.00;102738.34;5033334;28;20192;-72
2024/02/20 08:55:03;;;;;;;26.67;5.80;;;;;;;7.29;100.00;102760.41;5018093;28;20177;-72
2024/02/20 08:57:31;;;;;;;27.60;6.57;;;;;;;6.97;100.00;102718.63;5034019;28;20196;-72
2024/02/20 08:59:59;;;;;;;24.30;5.10;;;;;;;7.14;100.00;102733.16;5014869;28;20470;-72
2024/02/20 09:02:24;;;;;;;27.57;6.10;;;;;;;7.23;100.00;102737.75;5034892;28;20435;-71
2024/02/20 09:04:51;;;;;;;36.13;6.47;;;;;;;6.92;100.00;102674.63;5024527;28;20554;-72
2024/02/20 09:07:16;;;;;;;40.93;6.00;;;;;;;7.23;100.00;102734.22;5036286;28;20188;-72
2024/02/20 09:09:41;;;;;;;30.17;5.10;;;;;;;7.39;100.00;102763.13;5032687;28;20819;-71
2024/02/20 09:12:08;;;;;;;25.23;6.73;;;;;;;7.18;100.00;102712.44;5038291;28;20646;-71
2024/02/20 09:14:34;;;;;;;28.20;6.80;;;;;;;6.95;100.00;102672.53;5023534;28;20187;-71
2024/02/20 09:16:59;;;;;;;29.43;5.90;;;;;;;7.12;100.00;102708.47;5038190;28;20425;-72
2024/02/20 09:19:25;;;;;;;29.90;6.23;;;;;;;7.21;100.00;102718.34;5038554;28;20211;-71
2024/02/20 09:21:50;;;;;;;30.80;6.83;;;;;;;7.59;100.00;102764.09;5041460;28;20547;-72
2024/02/20 09:24:16;;;;;;;37.03;6.03;;;;;;;7.68;100.00;102766.81;5022597;28;20576;-72
2024/02/20 09:26:43;;;;;;;24.30;5.23;;;;;;;7.66;100.00;102757.25;5037101;28;20184;-72
2024/02/20 09:29:08;;;;;;;25.13;6.30;;;;;;;7.39;100.00;102712.41;5030366;28;20258;-72
2024/02/20 09:31:34;;;;;;;27.97;5.40;;;;;;;7.60;100.00;102752.44;5032597;28;20540;-71
2024/02/20 09:33:59;;;;;;;20.60;5.50;;;;;;;7.70;100.00;102772.03;5022404;28;20753;-72
2024/02/20 09:36:25;;;;;;;28.20;6.30;;;;;;;7.29;100.00;102700.81;5021885;28;20985;-72
2024/02/20 09:38:50;;;;;;;27.47;7.30;;;;;;;7.78;100.00;102756.19;5036710;28;20904;-71
2024/02/20 09:41:23;;;;;;;25.93;6.33;;;;;;;7.82;100.00;102743.41;5038030;28;20278;-72
2024/02/20 09:43:49;;;;;;;29.50;6.40;;;;;;;7.81;100.00;102742.56;5019828;28;20185;-72
2024/02/20 09:46:19;;;;;;;31.80;5.53;;;;;;;7.68;100.00;102694.69;5032870;28;20434;-71
2024/02/20 09:48:47;;;;;;;43.83;6.70;;;;;;;8.03;100.00;102738.00;5017933;28;20187;-72
2024/02/20 09:51:14;;;;;;;33.80;6.40;;;;;;;8.02;100.00;102739.00;5017250;28;20553;-72
2024/02/20 09:53:41;;;;;;;34.77;7.00;;;;;;;7.82;100.00;102716.69;5040995;28;20481;-72
2024/02/20 09:56:07;;;;;;;31.77;6.90;;;;;;;7.93;100.00;102748.66;5021663;28;20437;-72
2024/02/20 09:58:32;;;;;;;33.80;8.67;;;;;;;7.77;100.00;102698.38;5037016;28;20470;-72
2024/02/20 10:01:03;;;;;;;35.53;6.80;;;;;;;7.74;100.00;102704.00;5036904;28;20458;-72
2024/02/20 10:03:31;;;;;;;30.93;7.17;;;;;;;8.09;100.00;102724.09;5017942;28;20202;-72
2024/02/20 10:05:58;;;;;;;36.23;7.13;;;;;;;7.96;100.00;102720.81;5035963;28;20437;-72
2024/02/20 10:08:26;;;;;;;30.90;7.10;;;;;;;7.92;100.00;102698.84;5034122;28;21153;-71
2024/02/20 10:10:52;;;;;;;33.23;7.03;;;;;;;7.75;100.00;102638.91;5018865;28;20966;-71
2024/02/20 10:13:19;;;;;;;27.87;7.30;;;;;;;8.28;100.00;102734.00;5033865;28;20445;-72
2024/02/20 10:15:45;;;;;;;27.70;6.77;;;;;;;8.09;100.00;102718.75;5033403;28;20647;-72
2024/02/20 10:18:11;;;;;;;25.47;6.13;;;;;;;7.97;100.00;102701.97;5019212;28;20454;-72
2024/02/20 10:20:37;;;;;;;31.43;7.07;;;;;;;7.87;100.00;102648.50;5028597;28;20458;-72
2024/02/20 10:23:09;;;;;;;32.77;6.40;;;;;;;7.88;100.00;102644.00;5021413;28;20427;-72
2024/02/20 10:25:36;;;;;;;35.30;7.87;;;;;;;8.40;100.00;102718.72;5016817;28;20257;-72
2024/02/20 10:28:05;;;;;;;38.43;7.70;;;;;;;8.27;100.00;102724.25;5031911;28;20442;-72
2024/02/20 10:30:31;;;;;;;44.77;8.47;;;;;;;8.33;100.00;102718.38;5015116;28;20979;-72
2024/02/20 10:32:57;;;;;;;31.33;7.33;;;;;;;8.27;100.00;102716.25;5019262;28;20431;-72
2024/02/20 10:35:23;;;;;;;28.57;6.63;;;;;;;8.06;100.00;102676.25;5035245;28;20439;-72
2024/02/20 10:38:02;;;;;;;35.03;8.50;;;;;;;8.32;100.00;102728.22;5030084;28;20527;-72
2024/02/20 10:40:28;;;;;;;33.27;8.00;;;;;;;8.10;100.00;102705.25;5015325;28;20212;-72
2024/02/20 10:42:57;;;;;;;32.00;8.03;;;;;;;8.07;100.00;102684.16;5015962;28;20937;-72
2024/02/20 10:45:24;;;;;;;32.37;7.83;;;;;;;7.75;100.00;102624.69;5032597;28;20431;-72
2024/02/20 10:47:52;;;;;;;27.33;7.73;;;;;;;8.05;100.00;102683.44;5037105;28;20423;-72
2024/02/20 10:50:18;;;;;;;37.73;8.27;;;;;;;8.34;100.00;102728.09;5035088;28;20546;-72
2024/02/20 10:52:44;;;;;;;35.37;7.80;;;;;;;8.17;100.00;102708.22;5015366;28;20461;-72
2024/02/20 10:55:10;;;;;;;29.23;7.73;;;;;;;8.23;100.00;102721.03;5019736;28;20478;-72
2024/02/20 10:57:39;;;;;;;26.57;7.87;;;;;;;8.22;100.00;102707.81;5014879;28;20262;-72
2024/02/20 11:00:10;;;;;;;29.70;8.83;;;;;;;8.32;100.00;102725.53;5034447;28;20891;-72
2024/02/20 11:02:38;;;;;;;38.53;7.93;;;;;;;8.23;100.00;102698.81;5032836;28;20444;-72
2024/02/20 11:05:05;;;;;;;32.87;7.80;;;;;;;8.11;100.00;102690.06;5033306;28;20451;-72
2024/02/20 11:07:30;;;;;;;31.70;8.20;;;;;;;8.38;100.00;102722.34;5029942;28;20450;-72
2024/02/20 11:10:10;;;;;;;32.67;9.33;;;;;;;8.40;100.00;102716.03;5031423;28;20521;-72
2024/02/20 11:12:36;;;;;;;29.70;7.80;;;;;;;8.12;100.00;102678.38;5022059;28;20183;-71
2024/02/20 11:15:28;;;;;;;24.70;7.23;;;;;;;7.64;100.00;102589.13;5013497;28;20511;-72
2024/02/20 11:17:53;;;;;;;33.53;6.57;;;;;;;8.00;100.00;102666.13;5029911;28;20487;-72